createdAt,value
2023-03-27T00:02:20.697Z,5.50
2023-03-27T00:07:23.362Z,5.40
2023-03-27T00:12:27.058Z,5.30
2023-03-27T00:17:30.396Z,5.40
2023-03-27T00:22:32.749Z,5.30
2023-03-27T00:27:36.286Z,5.30
2023-03-27T00:32:38.592Z,5.30
2023-03-27T00:37:41.059Z,5.30
2023-03-27T00:42:45.069Z,5.20
2023-03-27T00:47:49.281Z,5.20
2023-03-27T00:52:56.520Z,5.20
2023-03-27T00:58:05.459Z,5.20
2023-03-27T01:03:09.643Z,5.30
2023-03-27T01:08:13.098Z,5.40
2023-03-27T01:13:31.907Z,5.30
2023-03-27T01:18:43.515Z,5.40
2023-03-27T01:24:34.113Z,5.40
2023-03-27T01:29:48.554Z,5.30
2023-03-27T01:35:14.852Z,5.20
2023-03-27T01:40:22.492Z,5.20
2023-03-27T01:45:28.132Z,5.20
2023-03-27T01:50:35.126Z,5.30
2023-03-27T01:55:43.492Z,5.20
2023-03-27T02:00:50.985Z,5.20
2023-03-27T02:06:01.743Z,5.20
2023-03-27T02:11:05.858Z,5.20
2023-03-27T02:16:12.027Z,5.20
2023-03-27T02:21:14.529Z,5.10
2023-03-27T02:26:18.550Z,5.10
2023-03-27T02:31:35.031Z,5.10
2023-03-27T02:36:49.284Z,5.20
2023-03-27T02:42:01.278Z,5.40
2023-03-27T02:47:09.077Z,5.60
2023-03-27T02:52:14.575Z,5.60
2023-03-27T02:57:25.090Z,5.50
2023-03-27T03:02:34.184Z,5.50
2023-03-27T03:07:38.352Z,5.40
2023-03-27T03:12:41.500Z,5.40
2023-03-27T03:17:43.686Z,5.50
2023-03-27T03:22:46.249Z,5.40
2023-03-27T03:27:49.965Z,5.40
2023-03-27T03:32:53.029Z,5.40
2023-03-27T03:37:55.340Z,5.40
2023-03-27T03:42:59.242Z,5.50
2023-03-27T03:48:01.396Z,5.50
2023-03-27T03:53:03.214Z,5.50
2023-03-27T03:58:08.174Z,5.50
2023-03-27T04:03:11.378Z,5.60
2023-03-27T04:08:13.915Z,5.60
2023-03-27T04:13:17.855Z,5.60
2023-03-27T04:18:20.781Z,5.70
2023-03-27T04:23:23.182Z,5.70
2023-03-27T04:28:27.190Z,5.60
2023-03-27T04:33:30.640Z,5.60
2023-03-27T04:38:33.218Z,5.60
2023-03-27T04:43:40.242Z,5.70
2023-03-27T04:48:42.824Z,5.70
2023-03-27T04:53:44.899Z,5.70
2023-03-27T04:58:48.771Z,5.70
2023-03-27T05:03:50.870Z,5.60
2023-03-27T05:08:54.099Z,5.70
2023-03-27T05:13:57.347Z,5.60
2023-03-27T05:18:59.460Z,5.60
2023-03-27T05:24:01.511Z,5.60
2023-03-27T05:29:06.006Z,5.60
2023-03-27T05:34:08.170Z,5.50
2023-03-27T05:39:10.620Z,5.50
2023-03-27T05:44:14.323Z,5.50
2023-03-27T05:49:16.767Z,5.50
2023-03-27T05:54:19.091Z,5.40
2023-03-27T05:59:23.567Z,5.40
2023-03-27T06:04:25.705Z,5.30
2023-03-27T06:09:28.134Z,5.00
2023-03-27T06:14:32.164Z,4.90
2023-03-27T06:19:34.373Z,4.80
2023-03-27T06:24:36.804Z,4.80
2023-03-27T06:29:40.660Z,4.60
2023-03-27T06:34:43.013Z,4.50
2023-03-27T06:39:45.522Z,4.40
2023-03-27T06:44:49.228Z,4.50
2023-03-27T06:49:51.921Z,4.60
2023-03-27T06:54:54.007Z,4.70
2023-03-27T07:00:00.918Z,4.90
2023-03-27T07:05:05.413Z,4.70
2023-03-27T07:10:09.304Z,4.70
2023-03-27T07:15:13.584Z,4.60
2023-03-27T07:20:15.885Z,4.60
2023-03-27T07:25:18.207Z,4.60
2023-03-27T07:30:22.093Z,4.60
2023-03-27T07:35:24.286Z,4.60
2023-03-27T07:40:37.300Z,4.50
2023-03-27T07:45:43.950Z,4.50
2023-03-27T07:50:46.547Z,4.40
2023-03-27T07:55:48.760Z,4.30
2023-03-27T08:00:53.464Z,4.10
2023-03-27T08:05:56.771Z,4.00
2023-03-27T08:11:00.017Z,4.10
2023-03-27T08:16:09.866Z,4.20
2023-03-27T08:21:12.865Z,4.20
2023-03-27T08:26:16.202Z,4.20
2023-03-27T08:31:20.197Z,4.20
2023-03-27T08:36:23.242Z,4.10
2023-03-27T08:41:33.317Z,4.10
2023-03-27T08:46:42.309Z,4.20
2023-03-27T08:51:48.479Z,4.10
2023-03-27T08:56:51.145Z,4.00
2023-03-27T09:02:03.201Z,4.00
2023-03-27T09:07:09.598Z,4.10
2023-03-27T09:12:27.572Z,4.00
2023-03-27T09:17:37.730Z,3.70
2023-03-27T09:22:45.196Z,3.50
2023-03-27T09:27:49.872Z,3.60
2023-03-27T09:32:58.109Z,3.60
2023-03-27T09:38:04.126Z,3.60
2023-03-27T09:43:17.807Z,3.90
2023-03-27T09:48:29.904Z,4.00
2023-03-27T09:53:32.883Z,4.00
2023-03-27T09:58:40.352Z,4.10
2023-03-27T10:03:50.321Z,4.00
2023-03-27T10:08:52.677Z,3.90
2023-03-27T10:13:55.685Z,4.00
2023-03-27T10:19:01.720Z,4.40
2023-03-27T10:24:07.053Z,4.60
2023-03-27T10:29:26.138Z,5.00
2023-03-27T10:34:40.103Z,5.30
2023-03-27T10:39:45.137Z,5.50
2023-03-27T10:44:49.779Z,5.80
2023-03-27T10:50:03.997Z,5.70
2023-03-27T10:55:21.844Z,5.50
2023-03-27T11:00:40.030Z,6.10
2023-03-27T11:05:46.754Z,6.30
2023-03-27T11:10:49.639Z,6.60
2023-03-27T11:15:55.864Z,6.90
2023-03-27T11:21:02.735Z,6.70
2023-03-27T11:26:06.699Z,7.00
2023-03-27T11:31:14.646Z,7.10
2023-03-27T11:36:37.815Z,7.10
2023-03-27T11:41:40.246Z,7.60
2023-03-27T11:47:00.188Z,7.70
2023-03-27T11:52:16.014Z,7.30
2023-03-27T11:57:24.145Z,7.30
2023-03-27T12:02:49.472Z,7.10
2023-03-27T12:08:02.335Z,7.00
2023-03-27T12:14:01.010Z,6.80
2023-03-27T12:19:28.450Z,6.60
2023-03-27T12:24:57.185Z,6.40
2023-03-27T12:30:15.476Z,6.20
2023-03-27T12:35:21.329Z,6.10
2023-03-27T12:40:31.432Z,6.30
2023-03-27T12:45:38.744Z,6.40
2023-03-27T12:50:58.374Z,6.60
2023-03-27T12:56:39.773Z,7.00
2023-03-27T13:02:25.747Z,6.90
2023-03-27T13:07:37.384Z,7.30
2023-03-27T13:13:24.496Z,7.60
2023-03-27T13:18:42.597Z,8.00
2023-03-27T13:23:57.507Z,8.60
2023-03-27T13:29:00.485Z,11.90
2023-03-27T13:34:16.283Z,11.90
2023-03-27T13:39:24.991Z,11.90
2023-03-27T13:44:44.632Z,14.60
2023-03-27T13:50:07.542Z,12.40
2023-03-27T13:55:35.447Z,10.80
2023-03-27T14:01:14.222Z,9.90
2023-03-27T14:06:51.298Z,8.70
2023-03-27T14:12:07.759Z,9.40
2023-03-27T14:17:39.938Z,14.20
2023-03-27T14:22:53.743Z,12.90
2023-03-27T14:27:58.352Z,10.40
2023-03-27T14:33:09.469Z,8.60
2023-03-27T14:38:23.536Z,7.90
2023-03-27T14:43:28.555Z,7.10
2023-03-27T14:48:33.889Z,6.60
2023-03-27T14:53:44.730Z,5.60
2023-03-27T14:58:48.302Z,5.00
2023-03-27T15:03:53.184Z,5.20
2023-03-27T15:08:59.896Z,5.60
2023-03-27T15:14:02.682Z,6.00
2023-03-27T15:19:12.674Z,6.00
2023-03-27T15:24:20.528Z,6.20
2023-03-27T15:29:32.542Z,6.70
2023-03-27T15:34:46.259Z,7.20
2023-03-27T15:40:28.714Z,7.80
2023-03-27T15:45:40.056Z,7.80
2023-03-27T15:50:54.702Z,7.40
2023-03-27T15:55:59.351Z,7.10
2023-03-27T16:01:18.446Z,6.70
2023-03-27T16:06:30.910Z,6.50
2023-03-27T16:11:43.885Z,6.40
2023-03-27T16:16:46.221Z,6.40
2023-03-27T16:21:58.483Z,6.40
2023-03-27T16:27:03.195Z,6.00
2023-03-27T16:32:06.932Z,5.80
2023-03-27T16:37:09.113Z,6.00
2023-03-27T16:42:17.229Z,6.00
2023-03-27T16:47:20.746Z,5.60
2023-03-27T16:52:23.918Z,5.40
2023-03-27T16:57:28.613Z,5.30
2023-03-27T17:02:34.809Z,4.90
2023-03-27T17:07:41.965Z,4.80
2023-03-27T17:12:46.007Z,4.70
2023-03-27T17:17:50.405Z,4.70
2023-03-27T17:22:52.570Z,4.60
2023-03-27T17:27:56.334Z,4.50
2023-03-27T17:32:59.905Z,4.50
2023-03-27T17:38:02.582Z,4.20
2023-03-27T17:43:07.853Z,3.70
2023-03-27T17:48:12.741Z,3.40
2023-03-27T17:53:15.301Z,3.20
2023-03-27T17:58:22.858Z,3.10
2023-03-27T18:03:26.500Z,3.00
2023-03-27T18:08:30.723Z,3.00
2023-03-27T18:13:36.616Z,3.00
2023-03-27T18:18:41.699Z,3.10
2023-03-27T18:23:45.946Z,3.10
2023-03-27T18:28:53.464Z,3.10
2023-03-27T18:33:56.493Z,3.20
2023-03-27T18:38:59.908Z,3.20
2023-03-27T18:44:05.332Z,3.20
2023-03-27T18:49:17.838Z,3.30
2023-03-27T18:54:26.532Z,3.40
2023-03-27T18:59:32.200Z,3.50
2023-03-27T19:04:38.403Z,3.50
2023-03-27T19:09:42.156Z,3.60
2023-03-27T19:14:47.069Z,3.70
2023-03-27T19:19:51.811Z,3.60
2023-03-27T19:24:55.500Z,3.40
2023-03-27T19:30:00.867Z,3.40
2023-03-27T19:35:08.019Z,3.50
2023-03-27T19:40:14.995Z,3.40
2023-03-27T19:45:22.153Z,3.20
2023-03-27T19:50:26.135Z,3.10
2023-03-27T19:55:30.901Z,3.30
2023-03-27T20:00:53.353Z,3.20
2023-03-27T20:06:07.895Z,3.20
2023-03-27T20:11:13.726Z,3.10
2023-03-27T20:16:19.054Z,3.10
2023-03-27T20:21:25.085Z,3.20
2023-03-27T20:26:28.518Z,3.20
2023-03-27T20:31:32.950Z,3.20
2023-03-27T20:36:36.648Z,3.20
2023-03-27T20:41:39.360Z,3.20
2023-03-27T20:46:47.832Z,3.20
2023-03-27T20:51:51.395Z,3.20
2023-03-27T20:56:53.859Z,3.00
2023-03-27T21:01:58.028Z,3.00
2023-03-27T21:07:00.498Z,2.80
2023-03-27T21:12:03.356Z,2.50
2023-03-27T21:17:07.302Z,2.30
2023-03-27T21:22:09.260Z,2.20
2023-03-27T21:27:11.882Z,2.10
2023-03-27T21:32:16.187Z,2.00
2023-03-27T21:37:18.503Z,2.00
2023-03-27T21:42:22.808Z,2.10
2023-03-27T21:47:37.313Z,1.90
2023-03-27T21:52:47.012Z,2.00
2023-03-27T21:57:49.317Z,2.00
2023-03-27T22:02:54.277Z,2.00
2023-03-27T22:07:57.938Z,2.00
2023-03-27T22:13:00.376Z,2.00
2023-03-27T22:18:04.180Z,1.90
2023-03-27T22:23:06.627Z,2.00
2023-03-27T22:28:09.292Z,2.10
2023-03-27T22:33:13.128Z,2.20
2023-03-27T22:38:15.547Z,2.20
2023-03-27T22:43:23.263Z,2.10
2023-03-27T22:48:27.388Z,2.10
2023-03-27T22:53:31.991Z,2.20
2023-03-27T22:58:34.572Z,2.30
2023-03-27T23:03:38.448Z,2.40
2023-03-27T23:08:40.857Z,2.30
2023-03-27T23:13:43.148Z,2.30
2023-03-27T23:18:46.971Z,2.40
2023-03-27T23:23:48.949Z,2.30
2023-03-27T23:28:50.822Z,2.40
2023-03-27T23:33:54.520Z,2.40
2023-03-27T23:38:56.741Z,2.40
2023-03-27T23:43:58.992Z,2.30
2023-03-27T23:49:02.762Z,2.30
2023-03-27T23:54:05.302Z,2.20
2023-03-27T23:59:07.408Z,2.10
